Time;durP1;ratioP1;P1;durP2;ratioP2;P2;SDS_P1;SDS_P2;PMS_P1;PMS_P2;Temp;Humidity;BMP_temperature;BMP_pressure;BME280_temperature;BME280_humidity;BME280_pressure;Samples;Min_cycle;Max_cycle;Signal;HPM_P1;HPM_P2
2023/05/12 00:02:06;;;;;;;2.03;1.87;;;11.00;99.90;;;;;;5096776;27;20519;-70
2023/05/12 00:04:31;;;;;;;5.13;1.33;;;10.90;99.90;;;;;;5113458;27;20425;-70
2023/05/12 00:06:57;;;;;;;5.83;1.40;;;10.90;99.90;;;;;;5131985;27;20266;-70
2023/05/12 00:09:22;;;;;;;3.63;1.50;;;10.90;99.90;;;;;;5131993;27;20175;-70
2023/05/12 00:11:48;;;;;;;4.67;1.33;;;10.90;99.90;;;;;;5113613;27;20664;-70
2023/05/12 00:14:14;;;;;;;1.73;1.57;;;10.90;99.90;;;;;;5096336;27;20188;-70
2023/05/12 00:16:40;;;;;;;2.00;1.80;;;10.80;99.90;;;;;;5113337;27;20212;-70
2023/05/12 00:19:06;;;;;;;1.50;1.30;;;10.80;99.90;;;;;;5113325;27;20418;-70
2023/05/12 00:21:31;;;;;;;5.43;2.20;;;10.80;99.90;;;;;;5113475;27;20181;-70
2023/05/12 00:23:57;;;;;;;3.07;1.73;;;10.90;99.90;;;;;;5131745;27;20413;-70
2023/05/12 00:26:23;;;;;;;3.80;2.10;;;10.80;99.90;;;;;;5131608;27;20212;-70
2023/05/12 00:28:48;;;;;;;5.57;2.80;;;10.80;99.90;;;;;;5131684;27;20182;-70
2023/05/12 00:31:14;;;;;;;3.03;2.83;;;10.80;99.90;;;;;;5131689;27;20179;-70
2023/05/12 00:33:40;;;;;;;3.97;3.67;;;10.90;99.90;;;;;;5131530;27;20182;-70
2023/05/12 00:36:06;;;;;;;3.30;3.03;;;10.90;99.90;;;;;;5113079;27;20432;-70
2023/05/12 00:38:33;;;;;;;4.40;3.10;;;10.80;99.90;;;;;;5112933;27;20271;-70
2023/05/12 00:40:59;;;;;;;5.07;3.70;;;10.80;99.90;;;;;;5131392;27;20431;-70
2023/05/12 00:43:25;;;;;;;6.00;3.90;;;10.80;99.90;;;;;;5131599;27;20782;-70
2023/05/12 00:45:51;;;;;;;5.37;3.80;;;10.80;99.90;;;;;;5131327;27;20470;-70
2023/05/12 00:48:17;;;;;;;3.70;3.27;;;10.70;99.90;;;;;;5131320;27;20833;-70
2023/05/12 00:50:43;;;;;;;4.10;3.37;;;10.70;99.90;;;;;;5131289;27;20416;-70
2023/05/12 00:53:08;;;;;;;5.40;3.53;;;10.70;99.90;;;;;;5131019;27;20574;-70
2023/05/12 00:55:36;;;;;;;4.60;3.03;;;10.70;99.90;;;;;;5112618;27;20431;-70
2023/05/12 00:58:02;;;;;;;3.73;3.43;;;10.80;99.90;;;;;;5131109;27;20173;-70
2023/05/12 01:00:28;;;;;;;4.80;3.40;;;10.60;99.90;;;;;;5130252;27;20939;-70
2023/05/12 01:02:57;;;;;;;9.73;3.33;;;10.70;99.90;;;;;;5130882;27;20422;-70
2023/05/12 01:05:26;;;;;;;2.00;1.90;;;10.70;99.90;;;;;;5130761;27;20434;-70
2023/05/12 01:07:52;;;;;;;2.17;2.00;;;10.60;99.90;;;;;;5095512;27;21039;-70
2023/05/12 01:10:19;;;;;;;1.97;1.77;;;10.60;99.90;;;;;;5112364;27;20416;-69
2023/05/12 01:12:45;;;;;;;2.40;2.20;;;10.60;99.90;;;;;;5130939;27;20462;-70
2023/05/12 01:15:12;;;;;;;1.83;1.73;;;10.60;99.90;;;;;;5130957;27;20437;-69
2023/05/12 01:17:43;;;;;;;3.60;2.10;;;10.60;99.90;;;;;;5112146;27;20926;-69
2023/05/12 01:20:11;;;;;;;4.23;1.90;;;10.60;99.90;;;;;;5112374;27;20432;-70
2023/05/12 01:22:37;;;;;;;2.10;2.00;;;10.60;99.90;;;;;;5112233;27;20427;-69
2023/05/12 01:25:07;;;;;;;3.67;1.90;;;10.60;99.90;;;;;;5095205;27;20422;-69
2023/05/12 01:27:33;;;;;;;2.20;2.00;;;10.70;99.90;;;;;;5112638;27;20475;-70
2023/05/12 01:30:03;;;;;;;3.33;2.07;;;10.70;99.90;;;;;;5131155;27;20429;-69
2023/05/12 01:32:29;;;;;;;2.40;2.20;;;10.70;99.90;;;;;;5131166;27;20415;-69
2023/05/12 01:34:55;;;;;;;1.67;1.57;;;10.70;99.90;;;;;;5112430;27;20743;-70
2023/05/12 01:37:21;;;;;;;4.73;1.97;;;10.60;99.90;;;;;;5112475;27;20185;-70
2023/05/12 01:39:47;;;;;;;4.53;1.87;;;10.60;99.90;;;;;;5131122;27;21060;-69
2023/05/12 01:42:12;;;;;;;2.23;2.10;;;10.60;99.90;;;;;;5112198;27;20453;-70
2023/05/12 01:44:38;;;;;;;2.57;2.33;;;10.60;99.90;;;;;;5130974;27;20240;-69
2023/05/12 01:47:04;;;;;;;5.97;3.00;;;10.60;99.90;;;;;;5130772;27;20248;-71
2023/05/12 01:49:30;;;;;;;4.13;3.10;;;10.70;99.90;;;;;;5130628;27;20291;-70
2023/05/12 01:51:56;;;;;;;4.00;2.83;;;10.70;99.90;;;;;;5130499;27;20989;-70
2023/05/12 01:54:21;;;;;;;7.07;2.70;;;10.60;99.90;;;;;;5094923;27;20184;-70
2023/05/12 01:56:47;;;;;;;3.63;3.33;;;10.70;99.90;;;;;;5130055;27;20209;-70
2023/05/12 01:59:13;;;;;;;7.37;3.10;;;10.60;99.90;;;;;;5129973;27;20189;-69
2023/05/12 02:01:38;;;;;;;5.70;4.30;;;10.70;99.90;;;;;;5130100;27;20241;-69
2023/05/12 02:04:04;;;;;;;4.87;4.37;;;10.60;99.90;;;;;;5130503;27;20354;-71
2023/05/12 02:06:30;;;;;;;11.27;4.83;;;10.60;99.90;;;;;;5130446;27;20216;-70
2023/05/12 02:08:56;;;;;;;6.30;5.70;;;10.60;99.90;;;;;;5111761;27;20190;-70
2023/05/12 02:11:22;;;;;;;8.70;6.90;;;10.60;99.90;;;;;;5111903;27;20512;-70
2023/05/12 02:13:47;;;;;;;10.07;7.03;;;10.60;99.90;;;;;;5130167;27;20507;-70
2023/05/12 02:16:13;;;;;;;9.40;7.50;;;10.60;99.90;;;;;;5130455;27;20715;-70
2023/05/12 02:18:39;;;;;;;13.20;7.60;;;10.60;99.90;;;;;;5130391;27;20695;-70
2023/05/12 02:21:05;;;;;;;10.90;6.77;;;10.60;99.90;;;;;;5130470;27;20199;-70
2023/05/12 02:23:30;;;;;;;13.47;8.80;;;10.60;99.90;;;;;;5111928;27;20412;-71
2023/05/12 02:25:56;;;;;;;11.00;8.17;;;10.60;99.90;;;;;;5129938;27;20459;-71
2023/05/12 02:28:22;;;;;;;10.23;9.13;;;10.60;99.90;;;;;;5129857;27;20393;-72
2023/05/12 02:30:49;;;;;;;15.10;10.23;;;10.60;99.90;;;;;;5129690;27;20236;-70
2023/05/12 02:33:16;;;;;;;12.60;9.43;;;10.50;99.90;;;;;;5129691;27;20184;-70
2023/05/12 02:35:43;;;;;;;13.30;10.40;;;10.60;99.90;;;;;;5129452;27;20966;-70
2023/05/12 02:38:09;;;;;;;13.77;10.63;;;10.60;99.90;;;;;;5129433;28;20638;-70
2023/05/12 02:40:34;;;;;;;13.37;10.50;;;10.70;99.90;;;;;;5131686;28;20446;-71
2023/05/12 02:43:00;;;;;;;23.93;12.10;;;10.70;99.90;;;;;;5113188;28;20206;-71
2023/05/12 02:45:26;;;;;;;13.87;10.83;;;10.60;99.90;;;;;;5096285;28;20237;-71
2023/05/12 02:47:51;;;;;;;15.10;9.20;;;10.60;99.90;;;;;;5113310;28;20608;-71
2023/05/12 02:50:17;;;;;;;7.50;6.63;;;10.50;99.90;;;;;;5113879;28;20486;-71
2023/05/12 02:52:43;;;;;;;10.97;6.70;;;10.50;99.90;;;;;;5131282;28;20209;-71
2023/05/12 02:55:08;;;;;;;9.43;5.20;;;10.40;99.90;;;;;;5112292;27;20196;-71
2023/05/12 02:57:34;;;;;;;9.60;5.10;;;10.40;99.90;;;;;;5131044;27;20237;-71
2023/05/12 03:00:00;;;;;;;5.90;5.30;;;10.30;99.90;;;;;;5131460;28;20192;-71
2023/05/12 03:02:26;;;;;;;7.07;5.17;;;10.40;99.90;;;;;;5112300;28;20196;-71
2023/05/12 03:04:52;;;;;;;5.93;5.10;;;10.40;99.90;;;;;;5129909;27;20414;-70
2023/05/12 03:07:17;;;;;;;6.40;5.70;;;10.40;99.90;;;;;;5129590;27;20298;-71
2023/05/12 03:09:43;;;;;;;6.63;5.43;;;10.50;99.90;;;;;;5129199;28;20184;-70
2023/05/12 03:12:08;;;;;;;6.00;4.87;;;10.60;99.90;;;;;;5129175;28;20177;-69
2023/05/12 03:14:34;;;;;;;5.53;3.67;;;10.60;99.90;;;;;;5110283;28;20181;-70
2023/05/12 03:17:00;;;;;;;4.50;4.10;;;10.60;99.90;;;;;;5129022;27;20233;-71
2023/05/12 03:19:26;;;;;;;5.50;3.83;;;10.50;99.90;;;;;;5129040;28;20188;-71
2023/05/12 03:21:52;;;;;;;5.03;4.20;;;10.50;99.90;;;;;;5128962;28;20595;-70
2023/05/12 03:24:18;;;;;;;7.13;4.90;;;10.50;99.90;;;;;;5113352;27;20465;-70
2023/05/12 03:26:44;;;;;;;8.80;4.43;;;10.40;99.90;;;;;;5132660;27;20465;-71
2023/05/12 03:29:09;;;;;;;5.50;5.00;;;10.40;99.90;;;;;;5132859;27;20174;-70
2023/05/12 03:31:35;;;;;;;4.70;4.17;;;10.40;99.90;;;;;;5114170;27;20870;-70
2023/05/12 03:34:01;;;;;;;5.87;4.60;;;10.50;99.90;;;;;;5132656;27;20175;-70
2023/05/12 03:36:26;;;;;;;5.10;4.50;;;10.50;99.90;;;;;;5114193;27;20201;-70
2023/05/12 03:38:52;;;;;;;8.30;5.37;;;10.50;99.90;;;;;;5132970;27;20200;-70
2023/05/12 03:41:17;;;;;;;5.40;4.90;;;10.50;99.90;;;;;;5096921;27;20291;-70
2023/05/12 03:43:43;;;;;;;6.20;5.50;;;10.50;99.90;;;;;;5132604;27;20183;-70
2023/05/12 03:46:08;;;;;;;9.70;5.60;;;10.60;99.90;;;;;;5132168;27;20211;-70
2023/05/12 03:48:34;;;;;;;6.37;5.77;;;10.50;99.90;;;;;;5132657;27;20181;-70
2023/05/12 03:51:00;;;;;;;11.30;6.47;;;10.50;99.90;;;;;;5132575;27;20320;-71
2023/05/12 03:53:25;;;;;;;6.53;5.83;;;10.50;99.90;;;;;;5132376;27;20184;-71
2023/05/12 03:55:51;;;;;;;7.20;6.40;;;10.50;99.90;;;;;;5096635;27;20207;-70
2023/05/12 03:58:17;;;;;;;7.93;6.50;;;10.50;99.90;;;;;;5132423;27;20288;-70
2023/05/12 04:00:42;;;;;;;6.87;5.87;;;10.50;99.90;;;;;;5132345;27;20189;-71
2023/05/12 04:03:08;;;;;;;6.87;6.10;;;10.50;99.90;;;;;;5132368;27;20426;-71
2023/05/12 04:05:35;;;;;;;12.73;4.70;;;10.50;99.90;;;;;;5113464;27;20202;-71
2023/05/12 04:08:00;;;;;;;8.43;4.23;;;10.50;99.90;;;;;;5113778;27;20207;-71
2023/05/12 04:10:26;;;;;;;4.10;3.70;;;10.50;99.90;;;;;;5132296;27;20434;-70
2023/05/12 04:12:51;;;;;;;3.83;3.20;;;10.50;99.90;;;;;;5132788;27;20178;-70
2023/05/12 04:15:17;;;;;;;3.93;3.13;;;10.50;99.90;;;;;;5114127;27;20279;-70
2023/05/12 04:17:43;;;;;;;3.23;2.93;;;10.50;99.90;;;;;;5132620;27;20585;-69
2023/05/12 04:20:08;;;;;;;5.20;3.43;;;10.50;99.90;;;;;;5132752;27;20269;-70
2023/05/12 04:22:34;;;;;;;5.47;3.10;;;10.50;99.90;;;;;;5114409;27;20186;-70
2023/05/12 04:25:00;;;;;;;3.10;2.90;;;10.50;99.90;;;;;;5132657;27;20734;-69
2023/05/12 04:27:25;;;;;;;5.53;3.30;;;10.50;99.90;;;;;;5132610;27;20231;-70
2023/05/12 04:29:51;;;;;;;3.87;3.13;;;10.40;99.90;;;;;;5132600;27;20186;-70
2023/05/12 04:32:17;;;;;;;3.70;3.40;;;10.40;99.90;;;;;;5132436;27;20182;-70
2023/05/12 04:34:42;;;;;;;5.13;2.87;;;10.50;99.90;;;;;;5111764;27;20631;-70
2023/05/12 04:37:08;;;;;;;3.10;2.90;;;10.50;99.90;;;;;;5130760;27;20434;-70
2023/05/12 04:39:34;;;;;;;4.53;4.13;;;10.50;99.90;;;;;;5130664;27;20186;-70
2023/05/12 04:42:03;;;;;;;6.20;4.57;;;10.60;99.90;;;;;;5130096;27;20205;-70
2023/05/12 04:44:28;;;;;;;5.17;4.40;;;10.60;99.90;;;;;;5111299;27;20194;-70
2023/05/12 04:46:55;;;;;;;6.50;3.43;;;10.60;99.90;;;;;;5129790;27;20526;-70
2023/05/12 04:49:21;;;;;;;5.17;4.67;;;10.60;99.90;;;;;;5111319;27;20268;-70
2023/05/12 04:51:47;;;;;;;6.40;5.10;;;10.60;99.90;;;;;;5129700;27;20504;-70
2023/05/12 04:54:12;;;;;;;4.60;4.20;;;10.60;99.90;;;;;;5129714;27;20529;-70
2023/05/12 04:56:38;;;;;;;6.27;4.40;;;10.60;99.90;;;;;;5129494;27;20445;-70
2023/05/12 04:59:04;;;;;;;3.40;3.10;;;10.60;99.90;;;;;;5094018;27;20189;-69
2023/05/12 05:01:29;;;;;;;6.50;3.67;;;10.70;99.90;;;;;;5129927;27;20184;-70
2023/05/12 05:03:55;;;;;;;3.90;3.50;;;10.80;99.90;;;;;;5093972;27;20198;-70
2023/05/12 05:06:20;;;;;;;9.43;4.00;;;10.80;99.90;;;;;;5129217;27;20220;-70
2023/05/12 05:08:46;;;;;;;4.23;3.73;;;10.90;99.90;;;;;;5110676;27;20254;-70
2023/05/12 05:11:12;;;;;;;3.67;3.00;;;10.90;99.90;;;;;;5110549;27;20677;-70
2023/05/12 05:13:37;;;;;;;4.93;3.63;;;11.00;99.90;;;;;;5129067;27;20553;-70
2023/05/12 05:16:03;;;;;;;4.80;4.30;;;11.00;99.90;;;;;;5129017;27;20205;-70
2023/05/12 05:18:29;;;;;;;5.03;4.30;;;11.10;99.90;;;;;;5110527;27;20188;-70
2023/05/12 05:20:55;;;;;;;5.47;4.93;;;11.10;99.90;;;;;;5110366;27;20187;-70
2023/05/12 05:23:20;;;;;;;5.93;4.60;;;11.20;99.90;;;;;;5129189;27;20284;-69
2023/05/12 05:25:46;;;;;;;5.50;4.97;;;11.10;99.90;;;;;;5128769;27;20445;-70
2023/05/12 05:28:11;;;;;;;5.30;4.80;;;11.20;99.90;;;;;;5110168;27;20177;-70
2023/05/12 05:30:37;;;;;;;5.30;4.30;;;11.20;99.90;;;;;;5128652;27;20179;-70
2023/05/12 05:33:03;;;;;;;4.30;3.90;;;11.20;99.90;;;;;;5110394;27;20266;-70
2023/05/12 05:35:30;;;;;;;6.33;4.90;;;11.30;99.90;;;;;;5128639;27;20242;-70
2023/05/12 05:37:55;;;;;;;5.90;5.40;;;11.30;99.90;;;;;;5109889;27;20247;-70
2023/05/12 05:40:22;;;;;;;6.40;5.67;;;11.30;99.90;;;;;;5128886;27;20463;-70
2023/05/12 05:42:47;;;;;;;10.93;7.20;;;11.40;99.90;;;;;;5092931;27;20488;-70
2023/05/12 05:45:13;;;;;;;11.43;7.93;;;11.40;99.90;;;;;;5128347;27;20460;-69
2023/05/12 05:47:39;;;;;;;10.70;9.20;;;11.40;99.90;;;;;;5128342;27;20577;-70
2023/05/12 05:50:05;;;;;;;8.63;7.73;;;11.50;99.90;;;;;;5128481;27;20182;-70
2023/05/12 05:52:31;;;;;;;9.50;8.33;;;11.50;99.90;;;;;;5110076;27;20208;-70
2023/05/12 05:54:56;;;;;;;13.70;8.37;;;11.50;99.90;;;;;;5128377;27;20456;-70
2023/05/12 05:57:22;;;;;;;10.30;8.83;;;11.60;99.90;;;;;;5109796;27;20240;-70
2023/05/12 05:59:48;;;;;;;14.00;9.90;;;11.60;99.90;;;;;;5128486;27;20250;-70
2023/05/12 06:02:14;;;;;;;10.00;8.97;;;11.60;99.90;;;;;;5110226;27;20194;-70
2023/05/12 06:04:39;;;;;;;10.77;8.70;;;11.70;99.90;;;;;;5128794;27;20456;-70
2023/05/12 06:07:05;;;;;;;12.47;10.37;;;11.80;99.90;;;;;;5110126;27;21005;-70
2023/05/12 06:09:31;;;;;;;14.27;11.00;;;11.90;99.90;;;;;;5128865;27;20184;-70
2023/05/12 06:11:56;;;;;;;12.53;10.13;;;11.90;99.90;;;;;;5128650;27;20558;-70
2023/05/12 06:14:22;;;;;;;11.97;9.50;;;12.00;99.90;;;;;;5128042;27;20192;-69
2023/05/12 06:16:48;;;;;;;13.80;10.60;;;12.00;99.90;;;;;;5127891;27;20219;-69
2023/05/12 06:19:14;;;;;;;16.73;10.07;;;12.00;99.90;;;;;;5128256;27;20634;-70
2023/05/12 06:21:40;;;;;;;22.87;10.43;;;12.10;99.90;;;;;;5109760;28;20191;-68
2023/05/12 06:24:05;;;;;;;12.87;10.73;;;12.10;99.90;;;;;;5128528;27;20432;-69
2023/05/12 06:26:31;;;;;;;14.57;11.00;;;12.10;99.90;;;;;;5110061;28;20267;-68
2023/05/12 06:28:57;;;;;;;14.20;9.90;;;12.10;99.90;;;;;;5128770;27;20187;-69
2023/05/12 06:31:22;;;;;;;12.63;10.57;;;12.20;99.90;;;;;;5129196;27;20225;-68
2023/05/12 06:33:48;;;;;;;12.23;10.70;;;12.20;99.90;;;;;;5110522;28;20186;-69
2023/05/12 06:36:14;;;;;;;17.33;10.57;;;12.20;99.90;;;;;;5129011;27;20206;-68
2023/05/12 06:38:39;;;;;;;11.57;9.67;;;12.20;99.90;;;;;;5129074;27;20428;-68
2023/05/12 06:41:05;;;;;;;13.07;8.63;;;12.30;99.90;;;;;;5128747;28;20199;-69
2023/05/12 06:43:31;;;;;;;10.73;8.47;;;12.30;99.90;;;;;;5110189;28;20187;-70
2023/05/12 06:45:56;;;;;;;18.63;9.60;;;12.30;99.90;;;;;;5110027;27;20211;-69
2023/05/12 06:48:23;;;;;;;13.00;9.23;;;12.30;99.90;;;;;;5128449;28;20184;-69
2023/05/12 06:50:48;;;;;;;11.83;8.77;;;12.30;99.90;;;;;;5128506;28;20171;-69
2023/05/12 06:53:14;;;;;;;10.57;8.93;;;12.40;99.90;;;;;;5128219;28;20414;-69
2023/05/12 06:55:42;;;;;;;12.27;8.53;;;12.40;99.90;;;;;;5128014;27;20210;-69
2023/05/12 06:58:07;;;;;;;11.77;8.20;;;12.40;99.90;;;;;;5128638;27;20665;-70
2023/05/12 07:00:33;;;;;;;9.43;7.43;;;12.40;99.90;;;;;;5131984;27;20429;-68
2023/05/12 07:02:58;;;;;;;10.70;7.47;;;12.40;99.90;;;;;;5132318;27;20270;-68
2023/05/12 07:05:24;;;;;;;10.63;7.97;;;12.40;99.90;;;;;;5131753;27;20207;-69
2023/05/12 07:07:50;;;;;;;11.37;8.53;;;12.40;99.90;;;;;;5131611;27;20658;-69
2023/05/12 07:10:15;;;;;;;14.90;9.57;;;12.50;99.90;;;;;;5113081;27;20191;-69
2023/05/12 07:12:41;;;;;;;9.00;7.50;;;12.50;99.90;;;;;;5131611;27;20182;-69
2023/05/12 07:15:08;;;;;;;9.90;8.00;;;12.50;99.90;;;;;;5131823;27;20601;-69
2023/05/12 07:17:34;;;;;;;8.83;7.90;;;12.60;99.90;;;;;;5131746;27;20655;-68
2023/05/12 07:20:00;;;;;;;9.27;7.80;;;12.70;99.90;;;;;;5131522;27;20429;-70
2023/05/12 07:22:26;;;;;;;14.00;7.97;;;12.80;99.90;;;;;;5131485;27;20425;-70
2023/05/12 07:24:51;;;;;;;8.70;7.63;;;12.90;99.90;;;;;;5131693;27;20185;-70
2023/05/12 07:27:17;;;;;;;10.73;8.03;;;13.00;99.90;;;;;;5113399;27;20281;-70
2023/05/12 07:29:43;;;;;;;8.27;7.43;;;13.00;99.90;;;;;;5131772;27;20184;-70
2023/05/12 07:32:09;;;;;;;11.80;7.97;;;13.20;99.90;;;;;;5113451;27;20840;-69
2023/05/12 07:34:34;;;;;;;9.70;7.10;;;13.30;99.90;;;;;;5131792;27;20451;-69
2023/05/12 07:37:01;;;;;;;8.43;7.60;;;13.40;99.90;;;;;;5131663;27;20211;-69
2023/05/12 07:39:27;;;;;;;7.87;7.07;;;13.40;99.90;;;;;;5113393;27;20552;-69
2023/05/12 07:41:54;;;;;;;9.17;7.20;;;13.60;99.90;;;;;;5131753;27;20456;-69
2023/05/12 07:44:20;;;;;;;8.13;7.07;;;13.60;99.90;;;;;;5113116;27;20434;-69
2023/05/12 07:46:45;;;;;;;11.10;7.83;;;13.70;99.90;;;;;;5131863;27;20466;-70
2023/05/12 07:49:11;;;;;;;11.13;7.67;;;13.60;99.90;;;;;;5113785;27;20473;-69
2023/05/12 07:51:38;;;;;;;9.70;6.73;;;13.70;99.90;;;;;;5131904;27;20177;-68
2023/05/12 07:54:03;;;;;;;8.30;6.70;;;13.60;99.90;;;;;;5132125;27;20234;-69
2023/05/12 07:56:29;;;;;;;10.60;6.77;;;13.60;99.90;;;;;;5131846;27;21005;-69
2023/05/12 07:58:55;;;;;;;9.37;7.13;;;13.70;99.90;;;;;;5131983;27;20414;-68
2023/05/12 08:01:21;;;;;;;7.77;6.43;;;13.70;99.90;;;;;;5132017;27;20272;-68
2023/05/12 08:03:47;;;;;;;7.27;6.03;;;13.70;99.90;;;;;;5132291;27;20505;-69
2023/05/12 08:06:12;;;;;;;5.70;5.10;;;13.70;99.90;;;;;;5132066;27;20221;-68
2023/05/12 08:08:38;;;;;;;6.20;4.97;;;13.70;99.90;;;;;;5132089;27;20476;-69
2023/05/12 08:11:04;;;;;;;6.17;5.13;;;13.70;99.90;;;;;;5132243;27;20185;-69
2023/05/12 08:13:29;;;;;;;7.57;5.10;;;13.70;99.90;;;;;;5132227;27;20177;-69
2023/05/12 08:15:55;;;;;;;4.60;3.93;;;13.70;99.90;;;;;;5132232;27;20575;-69
2023/05/12 08:18:20;;;;;;;4.50;4.07;;;13.80;99.90;;;;;;5132082;27;20185;-69
2023/05/12 08:20:48;;;;;;;4.60;4.20;;;13.90;99.90;;;;;;5132207;27;20609;-69
2023/05/12 08:23:16;;;;;;;6.20;4.47;;;14.10;99.90;;;;;;5132093;27;20236;-69
2023/05/12 08:25:43;;;;;;;5.97;4.80;;;14.20;99.90;;;;;;5131955;27;20435;-69
2023/05/12 08:28:09;;;;;;;5.73;5.13;;;14.20;99.90;;;;;;5131664;27;20462;-70
2023/05/12 08:30:36;;;;;;;3.87;3.57;;;14.10;99.90;;;;;;5131535;27;20407;-69
2023/05/12 08:33:02;;;;;;;3.93;3.63;;;14.10;99.90;;;;;;5131494;27;20436;-69
2023/05/12 08:35:29;;;;;;;3.37;3.17;;;14.20;99.90;;;;;;5131338;27;20447;-69
2023/05/12 08:37:56;;;;;;;3.40;3.10;;;14.30;99.90;;;;;;5130709;27;20845;-70
2023/05/12 08:40:23;;;;;;;5.33;4.30;;;14.30;99.90;;;;;;5132241;27;20410;-70
2023/05/12 08:43:23;;;;;;;3.70;3.40;;;14.40;99.90;;;;;;5131512;27;20444;-70
2023/05/12 08:45:49;;;;;;;3.10;2.90;;;14.40;99.90;;;;;;5131109;27;20511;-69
2023/05/12 08:48:18;;;;;;;5.50;3.47;;;14.40;99.90;;;;;;5130863;27;20418;-68
2023/05/12 08:50:46;;;;;;;3.20;2.90;;;14.50;99.90;;;;;;5130730;27;20407;-68
2023/05/12 08:53:15;;;;;;;4.87;3.80;;;14.60;99.90;;;;;;5131089;27;20405;-71
2023/05/12 08:55:43;;;;;;;3.23;2.63;;;14.70;99.90;;;;;;5130531;27;20430;-68
2023/05/12 08:58:10;;;;;;;6.30;3.50;;;14.70;99.90;;;;;;5111675;27;20426;-69
2023/05/12 09:00:38;;;;;;;4.70;2.60;;;14.60;99.90;;;;;;5130830;27;20419;-69
2023/05/12 09:03:05;;;;;;;4.60;3.13;;;14.60;99.90;;;;;;5112413;27;20431;-69
2023/05/12 09:05:31;;;;;;;5.87;3.60;;;14.70;99.90;;;;;;5130542;27;21323;-70
2023/05/12 09:07:58;;;;;;;3.67;3.37;;;14.70;99.90;;;;;;5111917;27;20462;-70
2023/05/12 09:10:26;;;;;;;3.53;3.23;;;14.80;99.90;;;;;;5130266;27;20921;-68
2023/05/12 09:12:55;;;;;;;3.60;3.30;;;14.90;99.90;;;;;;5130395;27;20415;-70
2023/05/12 09:15:26;;;;;;;3.40;3.10;;;15.00;99.90;;;;;;5130247;27;20430;-68
2023/05/12 09:17:52;;;;;;;4.40;3.20;;;15.10;99.90;;;;;;5130213;27;20410;-69
2023/05/12 09:20:17;;;;;;;2.77;2.57;;;15.10;99.90;;;;;;5129807;27;21258;-68
2023/05/12 09:22:43;;;;;;;3.80;3.50;;;15.20;99.90;;;;;;5129833;27;20190;-69
2023/05/12 09:25:20;;;;;;;6.93;3.43;;;15.10;99.90;;;;;;5129939;27;20641;-69
2023/05/12 09:27:46;;;;;;;3.73;3.43;;;15.00;99.90;;;;;;5111455;27;20274;-69
2023/05/12 09:30:13;;;;;;;3.90;3.60;;;15.00;99.90;;;;;;5130114;27;21029;-68
2023/05/12 09:32:38;;;;;;;4.27;3.90;;;14.90;99.90;;;;;;5129917;27;20421;-69
2023/05/12 09:35:05;;;;;;;4.60;3.77;;;14.90;99.90;;;;;;5129853;27;20417;-68
2023/05/12 09:37:32;;;;;;;4.30;3.90;;;14.80;99.90;;;;;;5130250;27;20180;-70
2023/05/12 09:39:59;;;;;;;5.13;4.60;;;15.00;99.90;;;;;;5130024;27;20411;-69
2023/05/12 09:42:28;;;;;;;4.97;4.00;;;15.00;99.90;;;;;;5129753;27;20694;-69
2023/05/12 09:45:04;;;;;;;4.47;4.07;;;15.10;99.90;;;;;;5129686;27;20418;-69
2023/05/12 09:47:37;;;;;;;3.80;2.73;;;15.00;99.90;;;;;;5129399;27;20466;-69
2023/05/12 09:50:04;;;;;;;4.17;3.77;;;15.00;99.90;;;;;;5129681;27;20467;-69
2023/05/12 09:52:34;;;;;;;5.17;3.87;;;15.00;99.90;;;;;;5111034;27;21097;-69
2023/05/12 09:55:18;;;;;;;6.27;4.03;;;15.00;99.90;;;;;;5129566;27;20433;-70
2023/05/12 09:57:45;;;;;;;4.53;4.13;;;15.00;99.90;;;;;;5129319;27;20997;-69
2023/05/12 10:00:13;;;;;;;6.10;4.10;;;14.90;99.90;;;;;;5129174;27;20494;-69
2023/05/12 10:02:41;;;;;;;5.43;2.87;;;14.90;99.90;;;;;;5129264;27;20425;-70
2023/05/12 10:05:15;;;;;;;4.23;3.83;;;15.10;99.90;;;;;;5129077;27;20416;-68
2023/05/12 10:07:46;;;;;;;4.27;3.67;;;15.10;99.90;;;;;;5128978;27;20977;-69
2023/05/12 10:10:16;;;;;;;1.90;1.70;;;15.10;99.90;;;;;;5129400;27;20403;-69
2023/05/12 10:12:42;;;;;;;4.47;1.93;;;15.30;99.90;;;;;;5129675;27;20761;-69
2023/05/12 10:15:10;;;;;;;1.90;1.67;;;15.20;99.90;;;;;;5129756;27;20410;-69
2023/05/12 10:17:36;;;;;;;2.83;2.63;;;15.30;99.90;;;;;;5111135;27;20544;-69
2023/05/12 10:20:05;;;;;;;3.07;2.47;;;15.30;99.90;;;;;;5130006;27;20420;-69
2023/05/12 10:22:33;;;;;;;2.10;2.00;;;15.40;99.90;;;;;;5111804;27;20422;-69
2023/05/12 10:25:03;;;;;;;2.60;2.40;;;15.40;99.90;;;;;;5111125;27;20431;-69
2023/05/12 10:27:32;;;;;;;11.23;2.07;;;15.40;99.90;;;;;;5129281;27;20488;-69
2023/05/12 10:30:00;;;;;;;2.33;2.13;;;15.60;99.90;;;;;;5129666;27;20879;-69
2023/05/12 10:32:26;;;;;;;1.97;1.87;;;15.60;99.90;;;;;;5110922;27;20416;-69
2023/05/12 10:34:52;;;;;;;2.33;1.80;;;15.80;99.90;;;;;;5129228;27;20441;-69
2023/05/12 10:37:18;;;;;;;3.10;1.83;;;15.90;99.90;;;;;;5128923;27;20632;-69
2023/05/12 10:39:49;;;;;;;2.90;1.90;;;16.00;99.90;;;;;;5128597;28;20988;-69
2023/05/12 10:42:25;;;;;;;1.87;1.77;;;15.90;99.90;;;;;;5128249;28;20201;-69
2023/05/12 10:44:53;;;;;;;1.57;1.47;;;16.00;99.90;;;;;;5127876;27;20410;-69
2023/05/12 10:47:25;;;;;;;1.43;1.27;;;16.00;99.90;;;;;;5127808;28;20471;-69
2023/05/12 10:49:57;;;;;;;3.10;0.90;;;16.20;99.90;;;;;;5128478;28;20413;-69
2023/05/12 10:52:22;;;;;;;3.03;1.70;;;16.30;99.90;;;;;;5093139;28;20432;-69
2023/05/12 10:54:48;;;;;;;4.53;1.40;;;16.40;99.90;;;;;;5128476;27;20438;-68
2023/05/12 10:57:19;;;;;;;1.40;1.30;;;16.50;99.90;;;;;;5128122;27;20276;-68
2023/05/12 10:59:55;;;;;;;1.63;1.33;;;16.70;99.90;;;;;;5109384;28;20298;-70
2023/05/12 11:02:28;;;;;;;9.60;1.90;;;16.70;99.90;;;;;;5128286;28;20431;-69
2023/05/12 11:04:59;;;;;;;1.97;1.80;;;16.60;99.90;;;;;;5109427;27;20422;-69
2023/05/12 11:07:30;;;;;;;4.97;1.93;;;16.50;99.90;;;;;;5128056;28;20994;-70
2023/05/12 11:09:58;;;;;;;1.40;1.30;;;16.40;99.90;;;;;;5127774;27;20499;-69
2023/05/12 11:12:25;;;;;;;2.13;1.70;;;16.10;99.90;;;;;;5128046;28;20420;-69
2023/05/12 11:14:51;;;;;;;1.27;1.17;;;16.00;99.90;;;;;;5109876;28;20412;-70
2023/05/12 11:17:17;;;;;;;2.80;1.40;;;15.90;99.90;;;;;;5109497;28;20431;-71
2023/05/12 11:19:48;;;;;;;5.83;1.57;;;16.00;99.90;;;;;;5127984;27;20471;-69
2023/05/12 11:22:18;;;;;;;2.07;1.40;;;15.90;99.90;;;;;;5128084;28;20222;-69
2023/05/12 11:24:44;;;;;;;1.63;1.50;;;15.80;99.90;;;;;;5109717;28;20416;-69
2023/05/12 11:27:15;;;;;;;1.30;1.20;;;15.80;99.90;;;;;;5127756;27;20466;-69
2023/05/12 11:29:42;;;;;;;4.20;1.20;;;15.90;99.90;;;;;;5127973;28;20186;-69
2023/05/12 11:32:09;;;;;;;1.30;1.00;;;16.00;99.90;;;;;;5109038;28;20433;-69
2023/05/12 11:34:35;;;;;;;1.33;0.80;;;16.00;99.90;;;;;;5127925;28;20506;-69
2023/05/12 11:37:03;;;;;;;0.90;0.70;;;15.90;99.90;;;;;;5127826;27;20536;-70
2023/05/12 11:39:31;;;;;;;1.03;0.93;;;16.00;99.90;;;;;;5127844;28;20935;-70
2023/05/12 11:42:02;;;;;;;1.20;0.70;;;16.00;99.90;;;;;;5127678;28;21015;-69
2023/05/12 11:44:28;;;;;;;1.57;0.77;;;15.80;99.90;;;;;;5129281;27;20417;-70
2023/05/12 11:46:59;;;;;;;1.00;0.90;;;16.10;99.90;;;;;;5131257;27;20474;-70
2023/05/12 11:49:26;;;;;;;1.87;1.10;;;16.20;99.90;;;;;;5131676;27;20412;-71
2023/05/12 11:51:54;;;;;;;0.93;0.80;;;16.10;99.90;;;;;;5131563;27;20477;-70
2023/05/12 11:54:21;;;;;;;1.00;0.70;;;16.00;99.90;;;;;;5131397;27;20417;-68
2023/05/12 11:56:51;;;;;;;0.80;0.70;;;16.00;99.90;;;;;;5131311;27;20522;-70
2023/05/12 11:59:34;;;;;;;1.10;0.60;;;16.00;99.90;;;;;;5131281;27;20495;-70
2023/05/12 12:02:02;;;;;;;3.90;1.80;;;16.00;99.90;;;;;;5131460;27;20448;-70
2023/05/12 12:04:40;;;;;;;3.37;2.10;;;15.90;99.90;;;;;;5112311;27;20512;-70
2023/05/12 12:07:07;;;;;;;2.30;1.87;;;15.90;99.90;;;;;;5130622;27;20471;-70
2023/05/12 12:09:39;;;;;;;4.23;1.50;;;15.80;99.90;;;;;;5130867;27;20412;-70
2023/05/12 12:12:06;;;;;;;1.70;1.60;;;15.80;99.90;;;;;;5112342;27;20419;-69
2023/05/12 12:14:33;;;;;;;2.60;2.40;;;15.70;99.90;;;;;;5130711;27;20409;-69
2023/05/12 12:16:59;;;;;;;1.70;1.60;;;15.60;99.90;;;;;;5130753;27;20474;-69
2023/05/12 12:19:26;;;;;;;1.70;1.60;;;15.60;99.90;;;;;;5130579;27;20439;-68
2023/05/12 12:21:52;;;;;;;3.53;2.17;;;15.50;99.90;;;;;;5130853;27;20428;-69
2023/05/12 12:24:18;;;;;;;2.33;2.03;;;15.50;99.90;;;;;;5130883;27;20422;-69
2023/05/12 12:26:43;;;;;;;3.23;2.10;;;15.50;99.90;;;;;;5112357;27;20454;-70
2023/05/12 12:29:09;;;;;;;2.50;2.30;;;15.40;99.90;;;;;;5130880;27;20265;-70
2023/05/12 12:31:35;;;;;;;2.67;2.47;;;15.40;99.90;;;;;;5131504;27;20187;-70
2023/05/12 12:34:01;;;;;;;2.37;2.17;;;15.40;99.90;;;;;;5112596;27;20185;-69
2023/05/12 12:36:27;;;;;;;4.67;2.57;;;15.20;99.90;;;;;;5131305;27;20781;-69
2023/05/12 12:38:53;;;;;;;3.10;2.90;;;15.10;99.90;;;;;;5131391;27;20423;-69
2023/05/12 12:41:18;;;;;;;3.97;2.80;;;15.00;99.90;;;;;;5131444;27;20202;-69
2023/05/12 12:43:44;;;;;;;6.60;2.47;;;14.90;99.90;;;;;;5131580;27;20661;-69